Terminal Aerodrome Forecast
Issued by NWS

Home | Current Version | Previous Version | Graphics & Text | Print | Product List | Glossary On
Versions: 1 2 3 4 5 6 7 8 9 10 11 12 13 14 15 16 17 18 19 20 21 22 23 24 25 26 27 28 29 30 31 32
000
FTUS43 KLOT 301355 AAA
TAFDPA
TAF AMD
KDPA 301355Z 3014/3112 VRB03KT 4SM BR BKN007 OVC025
     FM301600 VRB03KT 5SM HZ SCT008 BKN025
     FM302000 VRB03KT P6SM SCT025
     FM310300 00000KT 3SM BR SKC=

USA.gov is the U.S. government's official web portal to all federal, state and local government web resources and services.